Hovedside
METAR-TAF:

METAR-TAF

Lufthavner :

Helsingborg, Sverige

Ängelholm-Helsingborg lufthavn

breddegrad: 56-17-46N, lengdegrad: 012-50-50E, høyde over havet: 21 m

Gjeldene værobservasjon

Denne rapporten ble laget for 1 time og 15 minutter siden, klokken 09:50 UTC
Vind 11 kt fra Vest
Temperatur 8°C
Luftfuktighet 57%
Trykk 1011 hPa
Sikt 10 km eller mer

METAR: ESTA 270950Z AUTO 26011KT 9999 FEW210/// 08/M00 Q1011

Tid: 13:05 (11:05 UTC)

Varsel

Denne rapporten ble laget for 3 timer og 4 minutter siden, klokken 08:01 UTC
Varsel gyldig fra 27. klokken 09 UTC til 27. klokken 18 UTC
Vind 10 kt fra Vest
Sikt 10 km eller mer
Spredte skyer i en høyde av 3000 ft
Midlertidig
fra 27. klokken 10 UTC til 27. klokken 18 UTC
Spredte skyer i en høyde av 3000 ft, Bygeskyer.
regnbyger

TAF: ESTA 270801Z 2709/2718 26010KT 9999 SCT030 TEMPO 2710/2718 SHRA SCT030CB

Værobservasjoner og værvarsel for over 4000 flyplasser (METAR- og TAF-rapporter).

Tilgjengelige stasjoner er representert av de røde og gule prikkene på kartet.

Hold musepekeren over prikken for å se navnet på stasjonen.

Klikk så for å se værobservasjoner og -varsler.

For å forandre kartet kan du klikke på den grønne knappen med svart kryss for å zoome inn, på den grønne knappen med strek for å zoome ut, eller på de grønne pilene for å se tilstøtende kart.


METAR-TAF: